createdAt,value
2023-01-22T00:01:24.984Z,3.97
2023-01-22T00:03:55.000Z,3.99
2023-01-22T00:06:23.877Z,3.95
2023-01-22T00:08:52.568Z,4.04
2023-01-22T00:11:21.124Z,3.94
2023-01-22T00:13:49.137Z,3.94
2023-01-22T00:16:18.391Z,4.25
2023-01-22T00:18:46.950Z,3.74
2023-01-22T00:21:15.028Z,3.47
2023-01-22T00:23:43.133Z,3.54
2023-01-22T00:26:15.690Z,3.70
2023-01-22T00:28:45.740Z,3.55
2023-01-22T00:31:16.544Z,3.75
2023-01-22T00:33:46.225Z,3.73
2023-01-22T00:36:17.652Z,3.99
2023-01-22T00:38:45.840Z,3.80
2023-01-22T00:41:15.351Z,3.93
2023-01-22T00:43:43.555Z,4.16
2023-01-22T00:46:16.234Z,3.62
2023-01-22T00:48:49.938Z,3.69
2023-01-22T00:51:18.196Z,3.93
2023-01-22T00:53:46.787Z,4.18
2023-01-22T00:56:15.333Z,3.80
2023-01-22T00:58:43.996Z,3.72
2023-01-22T01:01:14.464Z,3.80
2023-01-22T01:03:43.025Z,3.98
2023-01-22T01:06:17.248Z,4.07
2023-01-22T01:08:47.430Z,4.04
2023-01-22T01:11:25.461Z,4.06
2023-01-22T01:13:54.250Z,3.74
2023-01-22T01:16:30.349Z,3.52
2023-01-22T01:19:02.738Z,3.79
2023-01-22T01:21:30.726Z,3.75
2023-01-22T01:24:00.881Z,3.99
2023-01-22T01:26:29.387Z,4.05
2023-01-22T01:28:57.465Z,3.87
2023-01-22T01:31:28.769Z,3.84
2023-01-22T01:33:59.098Z,3.94
2023-01-22T01:36:47.175Z,4.04
2023-01-22T01:39:16.950Z,3.93
2023-01-22T01:41:45.383Z,4.32
2023-01-22T01:44:18.610Z,3.91
2023-01-22T01:46:48.547Z,4.28
2023-01-22T01:49:28.452Z,4.24
2023-01-22T01:52:00.519Z,3.95
2023-01-22T01:54:29.431Z,3.80
2023-01-22T01:57:04.750Z,4.51
2023-01-22T01:59:33.858Z,4.24
2023-01-22T02:02:03.427Z,4.19
2023-01-22T02:04:32.231Z,3.65
2023-01-22T02:07:00.300Z,3.93
2023-01-22T02:09:30.079Z,3.76
2023-01-22T02:11:58.704Z,4.28
2023-01-22T02:14:30.238Z,3.80
2023-01-22T02:17:21.504Z,3.76
2023-01-22T02:19:51.516Z,3.59
2023-01-22T02:22:22.594Z,3.75
2023-01-22T02:24:50.940Z,3.74
2023-01-22T02:27:19.821Z,3.49
2023-01-22T02:29:48.246Z,3.46
2023-01-22T02:32:17.106Z,3.24
2023-01-22T02:34:45.878Z,3.64
2023-01-22T02:37:14.081Z,3.34
2023-01-22T02:39:42.616Z,3.25
2023-01-22T02:42:11.427Z,2.72
2023-01-22T02:44:39.710Z,3.47
2023-01-22T02:47:07.928Z,3.24
2023-01-22T02:49:36.485Z,2.74
2023-01-22T02:52:04.754Z,2.74
2023-01-22T02:54:33.201Z,2.98
2023-01-22T02:57:01.706Z,3.03
2023-01-22T02:59:29.848Z,3.17
2023-01-22T03:01:58.073Z,2.77
2023-01-22T03:04:27.572Z,2.39
2023-01-22T03:06:55.682Z,2.40
2023-01-22T03:09:24.281Z,2.23
2023-01-22T03:11:53.189Z,2.73
2023-01-22T03:14:40.747Z,3.26
2023-01-22T03:17:28.158Z,3.26
2023-01-22T03:20:15.145Z,2.82
2023-01-22T03:22:43.623Z,3.33
2023-01-22T03:25:11.721Z,2.81
2023-01-22T03:27:59.889Z,3.29
2023-01-22T03:30:28.930Z,3.42
2023-01-22T03:32:57.111Z,3.10
2023-01-22T03:35:25.612Z,3.04
2023-01-22T03:37:55.769Z,3.17
2023-01-22T03:40:23.971Z,3.47
2023-01-22T03:42:53.882Z,2.95
2023-01-22T03:45:22.488Z,3.26
2023-01-22T03:47:54.938Z,3.21
2023-01-22T03:50:23.690Z,3.37
2023-01-22T03:52:53.001Z,3.25
2023-01-22T03:55:22.122Z,3.07
2023-01-22T03:57:50.600Z,2.99
2023-01-22T04:00:20.777Z,2.88
2023-01-22T04:02:52.880Z,2.55
2023-01-22T04:05:21.630Z,2.67
2023-01-22T04:07:50.889Z,2.88
2023-01-22T04:10:20.069Z,2.81
2023-01-22T04:12:49.210Z,2.47
2023-01-22T04:15:18.571Z,3.08
2023-01-22T04:17:47.434Z,3.36
2023-01-22T04:20:16.243Z,3.25
2023-01-22T04:22:44.680Z,3.10
2023-01-22T04:25:13.340Z,3.23
2023-01-22T04:27:41.414Z,3.42
2023-01-22T04:30:11.290Z,3.22
2023-01-22T04:32:39.721Z,3.44
2023-01-22T04:35:09.104Z,3.60
2023-01-22T04:37:37.651Z,3.31
2023-01-22T04:40:06.691Z,3.01
2023-01-22T04:42:35.330Z,3.51
2023-01-22T04:45:04.259Z,3.53
2023-01-22T04:47:32.948Z,3.72
2023-01-22T04:50:01.628Z,3.41
2023-01-22T04:52:29.730Z,2.84
2023-01-22T04:54:58.172Z,3.61
2023-01-22T04:57:26.995Z,3.53
2023-01-22T04:59:55.115Z,3.39
2023-01-22T05:02:23.578Z,3.57
2023-01-22T05:04:51.819Z,3.30
2023-01-22T05:07:19.981Z,3.06
2023-01-22T05:09:48.679Z,3.32
2023-01-22T05:12:16.804Z,3.53
2023-01-22T05:14:46.671Z,3.57
2023-01-22T05:17:15.251Z,3.53
2023-01-22T05:19:43.472Z,3.87
2023-01-22T05:22:12.636Z,3.27
2023-01-22T05:24:41.301Z,3.61
2023-01-22T05:27:09.372Z,3.13
2023-01-22T05:29:38.736Z,3.58
2023-01-22T05:32:07.359Z,3.79
2023-01-22T05:34:35.567Z,3.31
2023-01-22T05:37:04.441Z,3.81
2023-01-22T05:39:33.180Z,3.70
2023-01-22T05:42:01.484Z,3.67
2023-01-22T05:44:30.574Z,3.86
2023-01-22T05:47:00.643Z,3.93
2023-01-22T05:49:28.702Z,3.61
2023-01-22T05:51:56.942Z,3.81
2023-01-22T05:54:25.462Z,3.74
2023-01-22T05:56:53.755Z,3.71
2023-01-22T05:59:21.934Z,3.66
2023-01-22T06:01:51.665Z,3.95
2023-01-22T06:04:20.595Z,3.50
2023-01-22T06:06:49.501Z,4.14
2023-01-22T06:09:17.662Z,3.83
2023-01-22T06:11:46.220Z,3.86
2023-01-22T06:14:14.820Z,4.06
2023-01-22T06:16:43.172Z,4.22
2023-01-22T06:19:12.927Z,4.13
2023-01-22T06:21:41.432Z,3.96
2023-01-22T06:24:09.711Z,4.10
2023-01-22T06:26:38.265Z,4.26
2023-01-22T06:29:07.081Z,3.92
2023-01-22T06:31:35.353Z,3.88
2023-01-22T06:34:05.750Z,4.19
2023-01-22T06:36:33.891Z,3.94
2023-01-22T06:39:02.094Z,3.97
2023-01-22T06:41:31.021Z,4.26
2023-01-22T06:43:59.612Z,3.93
2023-01-22T06:46:27.938Z,4.05
2023-01-22T06:48:56.761Z,4.15
2023-01-22T06:51:25.877Z,3.60
2023-01-22T06:53:54.610Z,3.98
2023-01-22T06:56:23.147Z,4.24
2023-01-22T06:58:51.301Z,3.57
2023-01-22T07:01:19.462Z,3.83
2023-01-22T07:03:48.023Z,3.64
2023-01-22T07:06:18.954Z,4.06
2023-01-22T07:08:47.423Z,4.08
2023-01-22T07:11:16.411Z,3.87
2023-01-22T07:13:44.504Z,3.75
2023-01-22T07:16:13.625Z,3.58
2023-01-22T07:18:41.724Z,3.42
2023-01-22T07:21:11.350Z,3.25
2023-01-22T07:23:39.872Z,3.63
2023-01-22T07:26:08.153Z,3.66
2023-01-22T07:28:36.260Z,3.95
2023-01-22T07:31:05.512Z,4.25
2023-01-22T07:33:33.631Z,4.25
2023-01-22T07:36:01.793Z,4.26
2023-01-22T07:38:30.552Z,4.37
2023-01-22T07:41:04.336Z,3.75
2023-01-22T07:43:34.090Z,3.50
2023-01-22T07:46:06.892Z,3.80
2023-01-22T07:48:35.241Z,3.79
2023-01-22T07:51:06.035Z,3.78
2023-01-22T07:53:35.242Z,4.59
2023-01-22T07:56:03.752Z,4.40
2023-01-22T07:58:32.145Z,4.21
2023-01-22T08:01:00.401Z,4.33
2023-01-22T08:03:29.003Z,4.40
2023-01-22T08:05:57.571Z,3.98
2023-01-22T08:08:25.806Z,4.44
2023-01-22T08:10:58.881Z,4.75
2023-01-22T08:13:27.123Z,4.90
2023-01-22T08:15:55.540Z,5.00
2023-01-22T08:18:23.829Z,5.08
2023-01-22T08:20:51.941Z,4.65
2023-01-22T08:23:21.942Z,5.08
2023-01-22T08:25:50.179Z,5.05
2023-01-22T08:28:18.161Z,4.98
2023-01-22T08:30:47.104Z,5.23
2023-01-22T08:33:16.109Z,5.43
2023-01-22T08:35:45.412Z,5.24
2023-01-22T08:38:14.092Z,5.57
2023-01-22T08:40:42.130Z,5.48
2023-01-22T08:43:10.193Z,5.20
2023-01-22T08:45:38.698Z,5.35
2023-01-22T08:48:06.902Z,5.68
2023-01-22T08:50:34.894Z,5.91
2023-01-22T08:53:03.397Z,5.44
2023-01-22T08:55:31.622Z,5.52
2023-01-22T08:57:59.670Z,5.54
2023-01-22T09:00:28.209Z,5.33
2023-01-22T09:03:00.041Z,5.61
2023-01-22T09:05:28.932Z,5.49
2023-01-22T09:07:56.920Z,5.41
2023-01-22T09:10:25.294Z,5.50
2023-01-22T09:12:53.955Z,5.92
2023-01-22T09:15:21.959Z,6.02
2023-01-22T09:17:50.208Z,6.14
2023-01-22T09:20:18.956Z,5.78
2023-01-22T09:22:48.192Z,6.22
2023-01-22T09:25:16.527Z,6.06
2023-01-22T09:30:30.645Z,6.02
2023-01-22T09:32:59.365Z,6.16
2023-01-22T09:35:28.067Z,5.78
2023-01-22T09:37:56.112Z,5.75
2023-01-22T09:40:30.879Z,5.26
2023-01-22T09:43:23.718Z,5.60
2023-01-22T09:45:55.302Z,5.96
2023-01-22T09:48:24.949Z,5.08
2023-01-22T09:50:53.209Z,5.30
2023-01-22T09:53:21.717Z,5.83
2023-01-22T09:55:51.872Z,6.00
2023-01-22T09:58:22.388Z,6.22
2023-01-22T10:01:00.766Z,5.87
2023-01-22T10:03:35.250Z,6.02
2023-01-22T10:06:19.731Z,5.66
2023-01-22T10:09:08.245Z,6.15
2023-01-22T10:11:37.968Z,6.04
2023-01-22T10:14:16.116Z,5.96
2023-01-22T10:16:45.878Z,6.46
2023-01-22T10:19:23.298Z,6.05
2023-01-22T10:21:55.250Z,5.89
2023-01-22T10:24:23.588Z,5.88
2023-01-22T10:26:54.733Z,5.93
2023-01-22T10:29:26.051Z,6.17
2023-01-22T10:31:57.279Z,6.37
2023-01-22T10:34:31.137Z,6.53
2023-01-22T10:37:21.769Z,6.49
2023-01-22T10:39:50.926Z,6.32
2023-01-22T10:42:24.318Z,6.36
2023-01-22T10:45:16.107Z,6.51
2023-01-22T10:47:44.396Z,6.51
2023-01-22T10:50:16.741Z,6.08
2023-01-22T10:52:50.846Z,6.34
2023-01-22T10:55:28.102Z,6.06
2023-01-22T10:58:03.230Z,6.54
2023-01-22T11:00:50.504Z,6.14
2023-01-22T11:03:22.660Z,6.31
2023-01-22T11:05:54.826Z,6.28
2023-01-22T11:08:25.751Z,5.61
2023-01-22T11:10:57.219Z,5.85
2023-01-22T11:13:29.721Z,6.04
2023-01-22T11:16:03.613Z,6.26
2023-01-22T11:18:59.238Z,6.18
2023-01-22T11:21:36.355Z,5.86
2023-01-22T11:24:12.498Z,6.17
2023-01-22T11:27:11.568Z,5.91
2023-01-22T11:29:48.688Z,5.89
2023-01-22T11:32:16.610Z,6.39
2023-01-22T11:35:14.428Z,6.33
2023-01-22T11:37:49.388Z,6.25
2023-01-22T11:40:30.888Z,6.44
2023-01-22T11:43:09.939Z,5.93
2023-01-22T11:45:59.979Z,5.64
2023-01-22T11:48:33.950Z,5.65
2023-01-22T11:51:29.410Z,5.80
2023-01-22T11:54:00.544Z,5.99
2023-01-22T11:56:50.102Z,5.88
2023-01-22T11:59:28.230Z,5.97
2023-01-22T12:02:18.183Z,6.19
2023-01-22T12:05:04.088Z,5.79
2023-01-22T12:07:38.123Z,6.14
2023-01-22T12:10:12.709Z,5.81
2023-01-22T12:12:55.599Z,6.11
2023-01-22T12:15:51.780Z,5.94
2023-01-22T12:18:25.513Z,5.95
2023-01-22T12:21:10.211Z,5.74
2023-01-22T12:23:50.090Z,5.98
2023-01-22T12:26:24.180Z,6.06
2023-01-22T12:28:56.998Z,6.00
2023-01-22T12:31:54.730Z,5.89
2023-01-22T12:34:34.218Z,6.00
2023-01-22T12:37:03.589Z,6.01
2023-01-22T12:39:37.029Z,6.24
2023-01-22T12:42:20.399Z,5.83
2023-01-22T12:45:14.227Z,5.96
2023-01-22T12:47:52.349Z,5.96
2023-01-22T12:50:23.171Z,6.17
2023-01-22T12:53:01.183Z,6.28
2023-01-22T12:55:44.319Z,6.22
2023-01-22T12:58:27.008Z,6.45
2023-01-22T13:01:22.761Z,5.93
2023-01-22T13:04:03.038Z,6.13
2023-01-22T13:06:34.135Z,6.04
2023-01-22T13:09:04.262Z,5.75
2023-01-22T13:11:37.536Z,6.45
2023-01-22T13:14:15.081Z,6.49
2023-01-22T13:16:57.823Z,6.11
2023-01-22T13:19:30.519Z,6.48
2023-01-22T13:22:00.156Z,6.21
2023-01-22T13:24:28.847Z,6.64
2023-01-22T13:27:00.540Z,6.13
2023-01-22T13:29:37.736Z,5.91
2023-01-22T13:32:16.474Z,6.43
2023-01-22T13:34:44.907Z,6.53
2023-01-22T13:37:26.720Z,6.77
2023-01-22T13:39:55.105Z,6.60
2023-01-22T13:42:25.002Z,6.22
2023-01-22T13:44:53.326Z,6.16
2023-01-22T13:47:39.948Z,6.62
2023-01-22T13:50:22.157Z,6.69
2023-01-22T13:52:50.757Z,6.65
2023-01-22T13:55:21.312Z,6.46
2023-01-22T13:57:51.928Z,6.48
2023-01-22T14:00:34.593Z,6.69
2023-01-22T14:03:03.513Z,6.38
2023-01-22T14:05:35.805Z,6.52
2023-01-22T14:08:06.515Z,6.30
2023-01-22T14:10:34.817Z,6.43
2023-01-22T14:13:08.130Z,6.46
2023-01-22T14:15:39.549Z,6.46
2023-01-22T14:18:16.380Z,6.23
2023-01-22T14:20:46.498Z,6.60
2023-01-22T14:23:15.444Z,6.81
2023-01-22T14:25:48.385Z,6.98
2023-01-22T14:28:17.040Z,6.25
2023-01-22T14:30:45.675Z,6.46
2023-01-22T14:33:25.417Z,6.51
2023-01-22T14:35:54.300Z,6.71
2023-01-22T14:38:23.430Z,6.94
2023-01-22T14:40:52.183Z,6.74
2023-01-22T14:43:20.889Z,6.25
2023-01-22T14:45:49.182Z,6.40
2023-01-22T14:48:19.291Z,6.43
2023-01-22T14:50:48.458Z,6.45
2023-01-22T14:53:19.095Z,6.58
2023-01-22T14:55:47.516Z,6.50
2023-01-22T14:58:16.577Z,6.52
2023-01-22T15:00:44.823Z,6.66
2023-01-22T15:03:13.337Z,6.09
2023-01-22T15:05:41.380Z,5.96
2023-01-22T15:08:09.368Z,6.13
2023-01-22T15:10:47.656Z,6.42
2023-01-22T15:13:27.547Z,6.03
2023-01-22T15:16:09.585Z,6.17
2023-01-22T15:18:42.549Z,6.16
2023-01-22T15:21:10.955Z,5.88
2023-01-22T15:23:39.150Z,6.03
2023-01-22T15:26:09.568Z,6.15
2023-01-22T15:28:39.430Z,5.76
2023-01-22T15:31:10.398Z,5.97
2023-01-22T15:33:38.787Z,5.95
2023-01-22T15:36:07.379Z,6.05
2023-01-22T15:38:35.677Z,6.40
2023-01-22T15:41:07.490Z,6.10
2023-01-22T15:43:35.518Z,6.00
2023-01-22T15:46:04.039Z,6.35
2023-01-22T15:48:31.959Z,6.37
2023-01-22T15:51:08.285Z,5.97
2023-01-22T15:53:39.383Z,5.66
2023-01-22T15:56:09.330Z,6.01
2023-01-22T15:58:37.829Z,5.96
2023-01-22T16:01:07.508Z,6.01
2023-01-22T16:03:35.930Z,5.88
2023-01-22T16:06:13.339Z,6.29
2023-01-22T16:08:43.409Z,5.92
2023-01-22T16:11:12.000Z,6.28
2023-01-22T16:13:40.343Z,5.78
2023-01-22T16:16:16.126Z,5.59
2023-01-22T16:18:44.509Z,5.58
2023-01-22T16:21:13.207Z,5.74
2023-01-22T16:23:43.316Z,6.01
2023-01-22T16:26:18.212Z,5.28
2023-01-22T16:28:48.940Z,5.30
2023-01-22T16:31:23.504Z,5.36
2023-01-22T16:33:55.891Z,5.51
2023-01-22T16:36:26.511Z,5.88
2023-01-22T16:38:55.876Z,6.14
2023-01-22T16:41:28.097Z,5.62
2023-01-22T16:44:02.049Z,5.64
2023-01-22T16:46:32.125Z,5.61
2023-01-22T16:49:25.106Z,5.87
2023-01-22T16:52:16.730Z,5.78
2023-01-22T16:54:50.488Z,5.53
2023-01-22T16:57:22.217Z,5.29
2023-01-22T16:59:50.652Z,5.93
2023-01-22T17:02:19.479Z,6.09
2023-01-22T17:04:47.773Z,5.21
2023-01-22T17:07:32.267Z,5.24
2023-01-22T17:10:01.633Z,5.31
2023-01-22T17:12:30.162Z,5.62
2023-01-22T17:14:58.340Z,6.21
2023-01-22T17:17:26.576Z,5.95
2023-01-22T17:19:54.964Z,5.79
2023-01-22T17:22:24.342Z,5.36
2023-01-22T17:24:52.802Z,5.85
2023-01-22T17:27:21.747Z,5.44
2023-01-22T17:29:49.685Z,5.46
2023-01-22T17:32:17.817Z,5.63
2023-01-22T17:34:46.200Z,5.65
2023-01-22T17:37:14.237Z,5.82
2023-01-22T17:39:43.502Z,6.47
2023-01-22T17:42:11.958Z,6.49
2023-01-22T17:44:40.975Z,6.14
2023-01-22T17:47:10.600Z,5.66
2023-01-22T17:49:39.130Z,6.62
2023-01-22T17:52:09.274Z,6.08
2023-01-22T17:54:38.075Z,5.87
2023-01-22T17:57:06.569Z,5.93
2023-01-22T17:59:34.528Z,5.83
2023-01-22T18:02:02.575Z,5.39
2023-01-22T18:04:34.631Z,5.57
2023-01-22T18:07:03.832Z,5.31
2023-01-22T18:09:32.248Z,5.72
2023-01-22T18:12:00.749Z,5.72
2023-01-22T18:14:34.042Z,6.01
2023-01-22T18:17:02.567Z,6.04
2023-01-22T18:19:30.548Z,6.19
2023-01-22T18:21:58.526Z,6.43
2023-01-22T18:24:27.587Z,6.53
2023-01-22T18:26:58.133Z,5.65
2023-01-22T18:29:26.949Z,5.41
2023-01-22T18:31:54.858Z,5.97
2023-01-22T18:34:22.838Z,5.60
2023-01-22T18:36:51.226Z,5.94
2023-01-22T18:39:19.554Z,6.38
2023-01-22T18:41:47.748Z,6.66
2023-01-22T18:44:17.516Z,6.29
2023-01-22T18:46:48.351Z,5.82
2023-01-22T18:49:19.184Z,6.19
2023-01-22T18:51:47.400Z,6.16
2023-01-22T18:54:16.174Z,6.08
2023-01-22T18:56:44.701Z,6.24
2023-01-22T18:59:15.249Z,6.41
2023-01-22T19:01:50.225Z,6.36
2023-01-22T19:04:22.184Z,5.75
2023-01-22T19:06:52.699Z,5.96
2023-01-22T19:09:21.671Z,5.99
2023-01-22T19:11:52.380Z,5.18
2023-01-22T19:14:23.087Z,5.63
2023-01-22T19:16:53.524Z,5.54
2023-01-22T19:19:25.464Z,5.08
2023-01-22T19:21:55.834Z,5.80
2023-01-22T19:24:28.093Z,5.44
2023-01-22T19:26:57.179Z,5.37
2023-01-22T19:29:25.995Z,5.44
2023-01-22T19:31:55.955Z,4.92
2023-01-22T19:34:24.304Z,4.96
2023-01-22T19:36:55.181Z,5.11
2023-01-22T19:39:23.537Z,5.23
2023-01-22T19:41:51.757Z,5.26
2023-01-22T19:44:20.649Z,4.75
2023-01-22T19:46:48.789Z,5.02
2023-01-22T19:49:16.754Z,5.65
2023-01-22T19:51:45.034Z,5.64
2023-01-22T19:54:13.621Z,5.22
2023-01-22T19:56:45.512Z,4.58
2023-01-22T19:59:16.291Z,4.47
2023-01-22T20:01:48.790Z,4.63
2023-01-22T20:04:29.866Z,4.12
2023-01-22T20:07:00.877Z,5.27
2023-01-22T20:09:30.390Z,4.83
2023-01-22T20:11:59.216Z,3.99
2023-01-22T20:14:30.633Z,4.45
2023-01-22T20:17:00.368Z,4.70
2023-01-22T20:19:29.385Z,3.71
2023-01-22T20:21:57.770Z,4.80
2023-01-22T20:24:26.028Z,4.42
2023-01-22T20:26:55.648Z,4.29
2023-01-22T20:29:23.531Z,3.96
2023-01-22T20:31:52.934Z,4.48
2023-01-22T20:34:21.216Z,4.86
2023-01-22T20:36:49.202Z,4.19
2023-01-22T20:39:19.767Z,4.01
2023-01-22T20:41:47.895Z,3.28
2023-01-22T20:44:16.347Z,3.23
2023-01-22T20:46:44.896Z,3.35
2023-01-22T20:49:13.365Z,3.72
2023-01-22T20:51:42.493Z,3.61
2023-01-22T20:54:10.753Z,3.67
2023-01-22T20:56:38.868Z,2.97
2023-01-22T20:59:11.194Z,3.21
2023-01-22T21:01:39.865Z,3.40
2023-01-22T21:04:08.228Z,2.73
2023-01-22T21:06:37.578Z,2.71
2023-01-22T21:09:07.311Z,2.78
2023-01-22T21:11:36.748Z,2.95
2023-01-22T21:14:05.817Z,2.94
2023-01-22T21:16:36.884Z,3.19
2023-01-22T21:19:13.220Z,2.69
2023-01-22T21:21:41.541Z,2.47
2023-01-22T21:24:09.591Z,2.92
2023-01-22T21:26:37.898Z,2.99
2023-01-22T21:29:09.751Z,2.89
2023-01-22T21:31:38.002Z,2.65
2023-01-22T21:34:08.765Z,2.23
2023-01-22T21:36:39.360Z,2.27
2023-01-22T21:39:13.588Z,2.65
2023-01-22T21:41:43.731Z,2.39
2023-01-22T21:44:33.047Z,2.24
2023-01-22T21:47:01.744Z,2.43
2023-01-22T21:49:30.430Z,2.94
2023-01-22T21:52:00.799Z,3.04
2023-01-22T21:54:39.679Z,3.17
2023-01-22T21:57:11.505Z,3.51
2023-01-22T21:59:39.636Z,3.24
2023-01-22T22:02:10.667Z,3.35
2023-01-22T22:04:38.917Z,3.13
2023-01-22T22:07:06.947Z,3.45
2023-01-22T22:09:35.218Z,3.61
2023-01-22T22:12:04.107Z,3.53
2023-01-22T22:14:32.240Z,3.51
2023-01-22T22:17:00.209Z,3.75
2023-01-22T22:19:29.105Z,3.15
2023-01-22T22:21:57.018Z,3.04
2023-01-22T22:24:24.947Z,3.32
2023-01-22T22:26:53.239Z,3.29
2023-01-22T22:29:21.258Z,3.55
2023-01-22T22:31:49.329Z,3.97
2023-01-22T22:34:17.960Z,3.39
2023-01-22T22:39:13.826Z,2.74
2023-01-22T22:41:42.222Z,2.70
2023-01-22T22:44:10.999Z,3.06
2023-01-22T22:46:39.547Z,2.84
2023-01-22T22:49:11.846Z,2.73
2023-01-22T22:51:41.407Z,2.91
2023-01-22T22:54:18.043Z,2.52
2023-01-22T22:56:47.587Z,2.87
2023-01-22T22:59:16.455Z,2.39
2023-01-22T23:01:44.389Z,2.13
2023-01-22T23:04:12.987Z,2.27
2023-01-22T23:06:44.067Z,2.38
2023-01-22T23:09:14.661Z,2.53
2023-01-22T23:11:42.986Z,2.30
2023-01-22T23:14:10.857Z,2.17
2023-01-22T23:16:41.126Z,2.35
2023-01-22T23:19:14.069Z,2.52
2023-01-22T23:21:42.197Z,2.87
2023-01-22T23:24:12.403Z,2.23
2023-01-22T23:26:42.097Z,2.58
2023-01-22T23:29:12.109Z,2.96
2023-01-22T23:31:40.240Z,2.80
2023-01-22T23:34:11.801Z,2.62
2023-01-22T23:36:43.777Z,2.94
2023-01-22T23:39:13.647Z,2.74
2023-01-22T23:41:42.819Z,2.88
2023-01-22T23:44:11.959Z,2.97
2023-01-22T23:46:39.843Z,2.68
2023-01-22T23:49:08.373Z,2.98
2023-01-22T23:51:38.438Z,3.07
2023-01-22T23:54:07.541Z,3.13
2023-01-22T23:56:36.216Z,2.70
2023-01-22T23:59:04.155Z,2.97
